sensor_id;sensor_type;location;lat;lon;timestamp;P1;durP1;ratioP1;P2;durP2;ratioP2
27269;SDS011;14769;56.934;24.176;2022-12-24T00:00:46;4.43;;;0.40;;
27269;SDS011;14769;56.934;24.176;2022-12-24T00:01:48;2.85;;;0.50;;
27269;SDS011;14769;56.934;24.176;2022-12-24T00:02:50;3.08;;;0.70;;
27269;SDS011;14769;56.934;24.176;2022-12-24T00:03:52;0.70;;;0.45;;
27269;SDS011;14769;56.934;24.176;2022-12-24T00:04:54;5.00;;;0.50;;
27269;SDS011;14769;56.934;24.176;2022-12-24T00:06:04;2.97;;;0.63;;
27269;SDS011;14769;56.934;24.176;2022-12-24T00:07:13;3.03;;;0.40;;
27269;SDS011;14769;56.934;24.176;2022-12-24T00:08:15;1.20;;;0.30;;
27269;SDS011;14769;56.934;24.176;2022-12-24T00:09:17;4.15;;;0.50;;
27269;SDS011;14769;56.934;24.176;2022-12-24T00:10:19;1.98;;;0.75;;
27269;SDS011;14769;56.934;24.176;2022-12-24T00:11:21;1.95;;;0.50;;
27269;SDS011;14769;56.934;24.176;2022-12-24T00:12:23;1.58;;;0.60;;
27269;SDS011;14769;56.934;24.176;2022-12-24T00:13:25;1.48;;;0.50;;
27269;SDS011;14769;56.934;24.176;2022-12-24T00:14:27;1.58;;;0.60;;
27269;SDS011;14769;56.934;24.176;2022-12-24T00:15:29;2.03;;;0.60;;
27269;SDS011;14769;56.934;24.176;2022-12-24T00:16:31;2.20;;;0.70;;
27269;SDS011;14769;56.934;24.176;2022-12-24T00:17:33;1.80;;;0.70;;
27269;SDS011;14769;56.934;24.176;2022-12-24T00:18:35;4.05;;;0.65;;
27269;SDS011;14769;56.934;24.176;2022-12-24T00:19:45;2.33;;;0.55;;
27269;SDS011;14769;56.934;24.176;2022-12-24T00:20:48;3.28;;;0.90;;
27269;SDS011;14769;56.934;24.176;2022-12-24T00:21:50;2.70;;;0.40;;
27269;SDS011;14769;56.934;24.176;2022-12-24T00:22:52;1.40;;;0.60;;
27269;SDS011;14769;56.934;24.176;2022-12-24T00:23:53;1.60;;;0.70;;
27269;SDS011;14769;56.934;24.176;2022-12-24T00:24:55;5.25;;;0.85;;
27269;SDS011;14769;56.934;24.176;2022-12-24T00:25:57;3.50;;;0.55;;
27269;SDS011;14769;56.934;24.176;2022-12-24T00:26:59;1.67;;;0.55;;
27269;SDS011;14769;56.934;24.176;2022-12-24T00:28:01;4.82;;;0.50;;
27269;SDS011;14769;56.934;24.176;2022-12-24T00:29:02;3.05;;;0.70;;
27269;SDS011;14769;56.934;24.176;2022-12-24T00:30:05;1.38;;;0.50;;
27269;SDS011;14769;56.934;24.176;2022-12-24T00:31:08;3.10;;;0.60;;
27269;SDS011;14769;56.934;24.176;2022-12-24T00:32:11;0.98;;;0.68;;
27269;SDS011;14769;56.934;24.176;2022-12-24T00:33:13;1.88;;;0.80;;
27269;SDS011;14769;56.934;24.176;2022-12-24T00:34:23;2.30;;;0.70;;
27269;SDS011;14769;56.934;24.176;2022-12-24T00:35:25;3.40;;;0.98;;
27269;SDS011;14769;56.934;24.176;2022-12-24T00:36:26;3.17;;;0.80;;
27269;SDS011;14769;56.934;24.176;2022-12-24T00:37:28;2.63;;;1.00;;
27269;SDS011;14769;56.934;24.176;2022-12-24T00:38:30;2.53;;;0.90;;
27269;SDS011;14769;56.934;24.176;2022-12-24T00:39:32;3.47;;;1.05;;
27269;SDS011;14769;56.934;24.176;2022-12-24T00:40:34;5.43;;;0.80;;
27269;SDS011;14769;56.934;24.176;2022-12-24T00:41:36;2.63;;;0.80;;
27269;SDS011;14769;56.934;24.176;2022-12-24T00:42:38;1.58;;;0.63;;
27269;SDS011;14769;56.934;24.176;2022-12-24T00:43:40;2.15;;;1.20;;
27269;SDS011;14769;56.934;24.176;2022-12-24T00:44:41;3.95;;;0.80;;
27269;SDS011;14769;56.934;24.176;2022-12-24T00:45:43;6.88;;;0.93;;
27269;SDS011;14769;56.934;24.176;2022-12-24T00:46:45;2.08;;;0.73;;
27269;SDS011;14769;56.934;24.176;2022-12-24T00:47:47;2.10;;;0.80;;
27269;SDS011;14769;56.934;24.176;2022-12-24T00:48:49;1.90;;;0.82;;
27269;SDS011;14769;56.934;24.176;2022-12-24T00:49:52;3.30;;;0.60;;
27269;SDS011;14769;56.934;24.176;2022-12-24T00:50:54;2.75;;;0.70;;
27269;SDS011;14769;56.934;24.176;2022-12-24T00:51:55;1.30;;;0.60;;
27269;SDS011;14769;56.934;24.176;2022-12-24T00:52:58;1.52;;;0.45;;
27269;SDS011;14769;56.934;24.176;2022-12-24T00:54:00;1.48;;;0.50;;
27269;SDS011;14769;56.934;24.176;2022-12-24T00:55:02;2.28;;;0.65;;
27269;SDS011;14769;56.934;24.176;2022-12-24T00:56:04;2.05;;;0.65;;
27269;SDS011;14769;56.934;24.176;2022-12-24T00:57:07;2.35;;;0.50;;
27269;SDS011;14769;56.934;24.176;2022-12-24T00:58:09;1.33;;;0.30;;
27269;SDS011;14769;56.934;24.176;2022-12-24T00:59:11;1.63;;;0.30;;
27269;SDS011;14769;56.934;24.176;2022-12-24T01:00:13;2.17;;;0.73;;
27269;SDS011;14769;56.934;24.176;2022-12-24T01:01:18;2.88;;;0.40;;
27269;SDS011;14769;56.934;24.176;2022-12-24T01:02:21;2.00;;;0.52;;
27269;SDS011;14769;56.934;24.176;2022-12-24T01:03:24;2.28;;;0.40;;
27269;SDS011;14769;56.934;24.176;2022-12-24T01:04:38;1.05;;;0.40;;
27269;SDS011;14769;56.934;24.176;2022-12-24T01:05:58;0.63;;;0.40;;
27269;SDS011;14769;56.934;24.176;2022-12-24T01:07:00;0.60;;;0.28;;
27269;SDS011;14769;56.934;24.176;2022-12-24T01:08:02;2.92;;;0.50;;
27269;SDS011;14769;56.934;24.176;2022-12-24T01:09:04;2.42;;;0.30;;
27269;SDS011;14769;56.934;24.176;2022-12-24T01:10:06;0.95;;;0.43;;
27269;SDS011;14769;56.934;24.176;2022-12-24T01:11:10;1.75;;;0.43;;
27269;SDS011;14769;56.934;24.176;2022-12-24T01:12:13;0.85;;;0.30;;
27269;SDS011;14769;56.934;24.176;2022-12-24T01:13:15;4.43;;;0.40;;
27269;SDS011;14769;56.934;24.176;2022-12-24T01:14:17;2.85;;;0.40;;
27269;SDS011;14769;56.934;24.176;2022-12-24T01:15:20;3.10;;;0.40;;
27269;SDS011;14769;56.934;24.176;2022-12-24T01:16:22;2.85;;;0.38;;
27269;SDS011;14769;56.934;24.176;2022-12-24T01:17:24;1.45;;;0.65;;
27269;SDS011;14769;56.934;24.176;2022-12-24T01:18:26;1.35;;;0.68;;
27269;SDS011;14769;56.934;24.176;2022-12-24T01:19:28;1.17;;;0.30;;
27269;SDS011;14769;56.934;24.176;2022-12-24T01:20:30;1.25;;;0.40;;
27269;SDS011;14769;56.934;24.176;2022-12-24T01:21:33;1.27;;;0.40;;
27269;SDS011;14769;56.934;24.176;2022-12-24T01:22:35;0.80;;;0.47;;
27269;SDS011;14769;56.934;24.176;2022-12-24T01:23:37;1.52;;;0.88;;
27269;SDS011;14769;56.934;24.176;2022-12-24T01:24:39;3.25;;;0.50;;
27269;SDS011;14769;56.934;24.176;2022-12-24T01:25:42;0.80;;;0.60;;
27269;SDS011;14769;56.934;24.176;2022-12-24T01:26:44;1.77;;;0.45;;
27269;SDS011;14769;56.934;24.176;2022-12-24T01:27:46;2.15;;;0.55;;
27269;SDS011;14769;56.934;24.176;2022-12-24T01:28:48;3.05;;;0.30;;
27269;SDS011;14769;56.934;24.176;2022-12-24T01:29:50;1.73;;;0.60;;
27269;SDS011;14769;56.934;24.176;2022-12-24T01:30:51;1.00;;;0.38;;
27269;SDS011;14769;56.934;24.176;2022-12-24T01:31:53;2.17;;;0.40;;
27269;SDS011;14769;56.934;24.176;2022-12-24T01:32:55;1.30;;;0.50;;
27269;SDS011;14769;56.934;24.176;2022-12-24T01:33:57;0.50;;;0.40;;
27269;SDS011;14769;56.934;24.176;2022-12-24T01:34:59;2.75;;;0.70;;
27269;SDS011;14769;56.934;24.176;2022-12-24T01:36:02;2.03;;;0.57;;
27269;SDS011;14769;56.934;24.176;2022-12-24T01:37:04;1.95;;;0.40;;
27269;SDS011;14769;56.934;24.176;2022-12-24T01:38:06;1.25;;;0.30;;
27269;SDS011;14769;56.934;24.176;2022-12-24T01:39:08;1.58;;;0.60;;
27269;SDS011;14769;56.934;24.176;2022-12-24T01:40:14;1.50;;;0.47;;
27269;SDS011;14769;56.934;24.176;2022-12-24T01:41:35;1.80;;;0.30;;
27269;SDS011;14769;56.934;24.176;2022-12-24T01:42:56;1.27;;;0.43;;
27269;SDS011;14769;56.934;24.176;2022-12-24T01:45:41;3.60;;;0.50;;
27269;SDS011;14769;56.934;24.176;2022-12-24T01:46:42;1.77;;;0.50;;
27269;SDS011;14769;56.934;24.176;2022-12-24T01:47:45;2.45;;;0.80;;
27269;SDS011;14769;56.934;24.176;2022-12-24T01:48:48;2.85;;;0.60;;
27269;SDS011;14769;56.934;24.176;2022-12-24T01:49:56;1.52;;;0.60;;
27269;SDS011;14769;56.934;24.176;2022-12-24T01:52:17;3.58;;;0.60;;
27269;SDS011;14769;56.934;24.176;2022-12-24T01:53:27;3.13;;;0.65;;
27269;SDS011;14769;56.934;24.176;2022-12-24T01:54:30;2.50;;;0.70;;
27269;SDS011;14769;56.934;24.176;2022-12-24T01:55:36;2.15;;;0.50;;
27269;SDS011;14769;56.934;24.176;2022-12-24T01:56:41;3.88;;;0.50;;
27269;SDS011;14769;56.934;24.176;2022-12-24T01:57:52;3.08;;;0.52;;
27269;SDS011;14769;56.934;24.176;2022-12-24T01:58:59;2.17;;;0.90;;
27269;SDS011;14769;56.934;24.176;2022-12-24T02:00:11;3.03;;;0.50;;
27269;SDS011;14769;56.934;24.176;2022-12-24T02:01:14;1.27;;;0.63;;
27269;SDS011;14769;56.934;24.176;2022-12-24T02:02:17;1.98;;;0.50;;
27269;SDS011;14769;56.934;24.176;2022-12-24T02:03:20;1.17;;;0.70;;
27269;SDS011;14769;56.934;24.176;2022-12-24T02:05:53;2.45;;;0.60;;
27269;SDS011;14769;56.934;24.176;2022-12-24T02:06:58;3.05;;;0.60;;
27269;SDS011;14769;56.934;24.176;2022-12-24T02:08:00;3.72;;;0.70;;
27269;SDS011;14769;56.934;24.176;2022-12-24T02:09:04;2.95;;;0.73;;
27269;SDS011;14769;56.934;24.176;2022-12-24T02:10:08;5.03;;;0.70;;
27269;SDS011;14769;56.934;24.176;2022-12-24T02:11:14;1.90;;;0.68;;
27269;SDS011;14769;56.934;24.176;2022-12-24T02:12:18;2.40;;;0.80;;
27269;SDS011;14769;56.934;24.176;2022-12-24T02:13:20;4.50;;;0.80;;
27269;SDS011;14769;56.934;24.176;2022-12-24T02:14:22;2.22;;;0.77;;
27269;SDS011;14769;56.934;24.176;2022-12-24T02:15:27;3.42;;;1.10;;
27269;SDS011;14769;56.934;24.176;2022-12-24T02:24:20;1.30;;;0.50;;
27269;SDS011;14769;56.934;24.176;2022-12-24T02:27:27;3.30;;;0.80;;
27269;SDS011;14769;56.934;24.176;2022-12-24T02:30:22;2.42;;;0.73;;
27269;SDS011;14769;56.934;24.176;2022-12-24T02:32:52;1.33;;;0.60;;
27269;SDS011;14769;56.934;24.176;2022-12-24T02:34:08;3.40;;;1.00;;
27269;SDS011;14769;56.934;24.176;2022-12-24T02:37:01;2.55;;;0.88;;
27269;SDS011;14769;56.934;24.176;2022-12-24T02:38:12;3.42;;;0.90;;
27269;SDS011;14769;56.934;24.176;2022-12-24T02:39:37;5.70;;;0.80;;
27269;SDS011;14769;56.934;24.176;2022-12-24T02:41:00;4.38;;;0.75;;
27269;SDS011;14769;56.934;24.176;2022-12-24T02:42:10;3.78;;;0.90;;
27269;SDS011;14769;56.934;24.176;2022-12-24T02:43:17;3.85;;;0.98;;
27269;SDS011;14769;56.934;24.176;2022-12-24T02:44:24;4.10;;;0.90;;
27269;SDS011;14769;56.934;24.176;2022-12-24T02:45:31;1.10;;;0.40;;
27269;SDS011;14769;56.934;24.176;2022-12-24T02:46:35;1.58;;;0.70;;
27269;SDS011;14769;56.934;24.176;2022-12-24T02:47:37;1.75;;;0.63;;
27269;SDS011;14769;56.934;24.176;2022-12-24T02:48:41;3.30;;;0.80;;
27269;SDS011;14769;56.934;24.176;2022-12-24T02:49:45;4.03;;;0.85;;
27269;SDS011;14769;56.934;24.176;2022-12-24T02:51:02;3.45;;;0.82;;
27269;SDS011;14769;56.934;24.176;2022-12-24T02:52:26;2.85;;;0.90;;
27269;SDS011;14769;56.934;24.176;2022-12-24T02:53:38;7.23;;;1.23;;
27269;SDS011;14769;56.934;24.176;2022-12-24T02:54:43;3.90;;;1.00;;
27269;SDS011;14769;56.934;24.176;2022-12-24T02:55:49;4.10;;;1.60;;
27269;SDS011;14769;56.934;24.176;2022-12-24T02:57:13;5.20;;;1.65;;
27269;SDS011;14769;56.934;24.176;2022-12-24T03:00:07;6.45;;;1.67;;
27269;SDS011;14769;56.934;24.176;2022-12-24T03:05:46;3.30;;;1.35;;
27269;SDS011;14769;56.934;24.176;2022-12-24T03:06:59;3.42;;;0.98;;
27269;SDS011;14769;56.934;24.176;2022-12-24T03:11:12;8.75;;;3.15;;
27269;SDS011;14769;56.934;24.176;2022-12-24T03:12:17;4.82;;;2.40;;
27269;SDS011;14769;56.934;24.176;2022-12-24T03:13:25;6.07;;;2.58;;
27269;SDS011;14769;56.934;24.176;2022-12-24T03:14:28;7.88;;;3.95;;
27269;SDS011;14769;56.934;24.176;2022-12-24T03:15:34;16.08;;;5.55;;
27269;SDS011;14769;56.934;24.176;2022-12-24T03:16:38;15.38;;;6.57;;
27269;SDS011;14769;56.934;24.176;2022-12-24T03:17:41;11.25;;;5.32;;
27269;SDS011;14769;56.934;24.176;2022-12-24T03:18:45;13.90;;;6.00;;
27269;SDS011;14769;56.934;24.176;2022-12-24T03:19:49;14.52;;;5.03;;
27269;SDS011;14769;56.934;24.176;2022-12-24T03:20:55;8.35;;;4.40;;
27269;SDS011;14769;56.934;24.176;2022-12-24T03:22:03;12.65;;;5.25;;
27269;SDS011;14769;56.934;24.176;2022-12-24T03:23:10;14.32;;;6.30;;
27269;SDS011;14769;56.934;24.176;2022-12-24T03:24:12;11.00;;;4.75;;
27269;SDS011;14769;56.934;24.176;2022-12-24T03:25:14;10.23;;;4.13;;
27269;SDS011;14769;56.934;24.176;2022-12-24T03:26:17;7.60;;;3.80;;
27269;SDS011;14769;56.934;24.176;2022-12-24T03:27:20;10.20;;;4.53;;
27269;SDS011;14769;56.934;24.176;2022-12-24T03:28:23;8.10;;;3.65;;
27269;SDS011;14769;56.934;24.176;2022-12-24T03:29:27;6.05;;;2.83;;
27269;SDS011;14769;56.934;24.176;2022-12-24T03:30:30;5.05;;;2.70;;
27269;SDS011;14769;56.934;24.176;2022-12-24T03:33:06;6.03;;;2.92;;
27269;SDS011;14769;56.934;24.176;2022-12-24T03:34:08;6.53;;;3.10;;
27269;SDS011;14769;56.934;24.176;2022-12-24T03:35:11;5.57;;;3.10;;
27269;SDS011;14769;56.934;24.176;2022-12-24T03:36:14;6.97;;;2.42;;
27269;SDS011;14769;56.934;24.176;2022-12-24T03:37:17;6.22;;;2.50;;
27269;SDS011;14769;56.934;24.176;2022-12-24T03:38:18;5.65;;;2.78;;
27269;SDS011;14769;56.934;24.176;2022-12-24T03:39:21;5.43;;;2.25;;
27269;SDS011;14769;56.934;24.176;2022-12-24T03:40:23;5.10;;;2.15;;
27269;SDS011;14769;56.934;24.176;2022-12-24T03:41:25;6.28;;;2.80;;
27269;SDS011;14769;56.934;24.176;2022-12-24T03:42:27;9.77;;;4.20;;
27269;SDS011;14769;56.934;24.176;2022-12-24T03:43:29;12.75;;;4.47;;
27269;SDS011;14769;56.934;24.176;2022-12-24T03:44:32;9.07;;;3.10;;
27269;SDS011;14769;56.934;24.176;2022-12-24T03:45:33;8.93;;;3.92;;
27269;SDS011;14769;56.934;24.176;2022-12-24T03:46:35;9.65;;;3.95;;
27269;SDS011;14769;56.934;24.176;2022-12-24T03:47:37;11.55;;;3.72;;
27269;SDS011;14769;56.934;24.176;2022-12-24T03:48:39;8.50;;;3.45;;
27269;SDS011;14769;56.934;24.176;2022-12-24T03:49:42;8.77;;;3.22;;
27269;SDS011;14769;56.934;24.176;2022-12-24T03:50:44;5.55;;;2.25;;
27269;SDS011;14769;56.934;24.176;2022-12-24T03:51:46;4.43;;;2.90;;
27269;SDS011;14769;56.934;24.176;2022-12-24T03:52:47;4.85;;;2.75;;
27269;SDS011;14769;56.934;24.176;2022-12-24T03:53:53;5.25;;;1.30;;
27269;SDS011;14769;56.934;24.176;2022-12-24T03:54:57;5.72;;;2.22;;
27269;SDS011;14769;56.934;24.176;2022-12-24T03:55:59;7.15;;;2.92;;
27269;SDS011;14769;56.934;24.176;2022-12-24T03:57:01;7.78;;;3.10;;
27269;SDS011;14769;56.934;24.176;2022-12-24T03:58:02;9.07;;;2.78;;
27269;SDS011;14769;56.934;24.176;2022-12-24T03:59:05;4.00;;;2.60;;
27269;SDS011;14769;56.934;24.176;2022-12-24T04:00:08;7.35;;;3.95;;
27269;SDS011;14769;56.934;24.176;2022-12-24T04:01:10;7.72;;;3.30;;
27269;SDS011;14769;56.934;24.176;2022-12-24T04:02:13;8.88;;;3.05;;
27269;SDS011;14769;56.934;24.176;2022-12-24T04:03:15;9.52;;;2.70;;
27269;SDS011;14769;56.934;24.176;2022-12-24T04:04:17;4.18;;;2.10;;
27269;SDS011;14769;56.934;24.176;2022-12-24T04:05:19;5.43;;;2.55;;
27269;SDS011;14769;56.934;24.176;2022-12-24T04:06:21;5.88;;;1.60;;
27269;SDS011;14769;56.934;24.176;2022-12-24T04:07:23;5.45;;;1.40;;
27269;SDS011;14769;56.934;24.176;2022-12-24T04:08:24;6.28;;;1.80;;
27269;SDS011;14769;56.934;24.176;2022-12-24T04:09:26;5.78;;;1.60;;
27269;SDS011;14769;56.934;24.176;2022-12-24T04:10:29;3.50;;;1.98;;
27269;SDS011;14769;56.934;24.176;2022-12-24T04:11:31;7.95;;;3.05;;
27269;SDS011;14769;56.934;24.176;2022-12-24T04:12:33;8.98;;;2.80;;
27269;SDS011;14769;56.934;24.176;2022-12-24T04:13:35;6.80;;;2.58;;
27269;SDS011;14769;56.934;24.176;2022-12-24T04:14:37;5.55;;;2.63;;
27269;SDS011;14769;56.934;24.176;2022-12-24T04:15:39;11.50;;;5.35;;
27269;SDS011;14769;56.934;24.176;2022-12-24T04:16:41;18.20;;;6.65;;
27269;SDS011;14769;56.934;24.176;2022-12-24T04:17:44;16.17;;;6.55;;
27269;SDS011;14769;56.934;24.176;2022-12-24T04:18:46;18.52;;;7.55;;
27269;SDS011;14769;56.934;24.176;2022-12-24T04:19:48;16.77;;;6.85;;
27269;SDS011;14769;56.934;24.176;2022-12-24T04:20:50;21.10;;;8.32;;
27269;SDS011;14769;56.934;24.176;2022-12-24T04:21:52;22.48;;;9.98;;
27269;SDS011;14769;56.934;24.176;2022-12-24T04:22:54;19.83;;;10.40;;
27269;SDS011;14769;56.934;24.176;2022-12-24T04:23:56;23.73;;;11.32;;
27269;SDS011;14769;56.934;24.176;2022-12-24T04:24:58;20.38;;;10.95;;
27269;SDS011;14769;56.934;24.176;2022-12-24T04:26:00;22.20;;;11.77;;
27269;SDS011;14769;56.934;24.176;2022-12-24T04:27:03;22.88;;;10.95;;
27269;SDS011;14769;56.934;24.176;2022-12-24T04:28:05;22.88;;;10.52;;
27269;SDS011;14769;56.934;24.176;2022-12-24T04:29:07;18.70;;;9.60;;
27269;SDS011;14769;56.934;24.176;2022-12-24T04:30:09;18.83;;;8.68;;
27269;SDS011;14769;56.934;24.176;2022-12-24T04:31:12;17.00;;;7.30;;
27269;SDS011;14769;56.934;24.176;2022-12-24T04:32:16;16.90;;;8.02;;
27269;SDS011;14769;56.934;24.176;2022-12-24T04:33:18;15.88;;;8.00;;
27269;SDS011;14769;56.934;24.176;2022-12-24T04:34:20;14.20;;;6.72;;
27269;SDS011;14769;56.934;24.176;2022-12-24T04:35:22;9.77;;;4.68;;
27269;SDS011;14769;56.934;24.176;2022-12-24T04:36:24;7.68;;;3.38;;
27269;SDS011;14769;56.934;24.176;2022-12-24T04:37:26;7.78;;;3.30;;
27269;SDS011;14769;56.934;24.176;2022-12-24T04:38:28;6.22;;;2.63;;
27269;SDS011;14769;56.934;24.176;2022-12-24T04:39:31;4.53;;;2.05;;
27269;SDS011;14769;56.934;24.176;2022-12-24T04:40:33;7.22;;;1.75;;
27269;SDS011;14769;56.934;24.176;2022-12-24T04:41:35;6.53;;;2.30;;
27269;SDS011;14769;56.934;24.176;2022-12-24T04:42:37;6.60;;;2.63;;
27269;SDS011;14769;56.934;24.176;2022-12-24T04:43:38;11.13;;;3.13;;
27269;SDS011;14769;56.934;24.176;2022-12-24T04:44:40;10.27;;;2.60;;
27269;SDS011;14769;56.934;24.176;2022-12-24T04:45:42;5.70;;;2.58;;
27269;SDS011;14769;56.934;24.176;2022-12-24T04:46:44;5.50;;;2.67;;
27269;SDS011;14769;56.934;24.176;2022-12-24T04:47:47;10.98;;;4.50;;
27269;SDS011;14769;56.934;24.176;2022-12-24T04:48:50;6.82;;;2.88;;
27269;SDS011;14769;56.934;24.176;2022-12-24T04:49:53;8.20;;;3.35;;
27269;SDS011;14769;56.934;24.176;2022-12-24T04:50:55;13.82;;;3.97;;
27269;SDS011;14769;56.934;24.176;2022-12-24T04:51:57;18.90;;;7.75;;
27269;SDS011;14769;56.934;24.176;2022-12-24T04:52:59;27.35;;;9.57;;
27269;SDS011;14769;56.934;24.176;2022-12-24T04:54:01;30.67;;;10.35;;
27269;SDS011;14769;56.934;24.176;2022-12-24T04:55:04;43.10;;;13.82;;
27269;SDS011;14769;56.934;24.176;2022-12-24T04:56:06;63.55;;;18.73;;
27269;SDS011;14769;56.934;24.176;2022-12-24T04:57:12;64.20;;;17.90;;
27269;SDS011;14769;56.934;24.176;2022-12-24T04:58:14;62.20;;;18.77;;
27269;SDS011;14769;56.934;24.176;2022-12-24T04:59:16;120.13;;;34.33;;
27269;SDS011;14769;56.934;24.176;2022-12-24T05:00:18;102.47;;;28.10;;
27269;SDS011;14769;56.934;24.176;2022-12-24T05:01:21;161.77;;;43.30;;
27269;SDS011;14769;56.934;24.176;2022-12-24T05:02:27;109.00;;;31.13;;
27269;SDS011;14769;56.934;24.176;2022-12-24T05:03:29;95.88;;;26.92;;
27269;SDS011;14769;56.934;24.176;2022-12-24T05:04:31;117.35;;;40.00;;
27269;SDS011;14769;56.934;24.176;2022-12-24T05:05:33;116.32;;;37.05;;
27269;SDS011;14769;56.934;24.176;2022-12-24T05:06:35;125.65;;;41.67;;
27269;SDS011;14769;56.934;24.176;2022-12-24T05:07:37;78.78;;;26.23;;
27269;SDS011;14769;56.934;24.176;2022-12-24T05:08:39;84.50;;;26.15;;
27269;SDS011;14769;56.934;24.176;2022-12-24T05:09:43;80.57;;;25.67;;
27269;SDS011;14769;56.934;24.176;2022-12-24T05:10:53;62.00;;;19.48;;
27269;SDS011;14769;56.934;24.176;2022-12-24T05:11:56;94.35;;;29.67;;
27269;SDS011;14769;56.934;24.176;2022-12-24T05:12:58;84.93;;;26.27;;
27269;SDS011;14769;56.934;24.176;2022-12-24T05:14:00;77.13;;;22.55;;
27269;SDS011;14769;56.934;24.176;2022-12-24T05:15:02;73.88;;;23.88;;
27269;SDS011;14769;56.934;24.176;2022-12-24T05:16:04;55.00;;;17.88;;
27269;SDS011;14769;56.934;24.176;2022-12-24T05:17:06;29.15;;;11.18;;
27269;SDS011;14769;56.934;24.176;2022-12-24T05:18:08;22.13;;;8.98;;
27269;SDS011;14769;56.934;24.176;2022-12-24T05:19:10;32.05;;;11.00;;
27269;SDS011;14769;56.934;24.176;2022-12-24T05:20:12;20.88;;;9.07;;
27269;SDS011;14769;56.934;24.176;2022-12-24T05:21:16;22.33;;;8.15;;
27269;SDS011;14769;56.934;24.176;2022-12-24T05:22:20;14.55;;;6.95;;
27269;SDS011;14769;56.934;24.176;2022-12-24T05:23:41;18.58;;;7.45;;
27269;SDS011;14769;56.934;24.176;2022-12-24T05:25:02;13.82;;;6.90;;
27269;SDS011;14769;56.934;24.176;2022-12-24T05:27:36;29.45;;;9.88;;
27269;SDS011;14769;56.934;24.176;2022-12-24T05:28:38;30.02;;;9.48;;
27269;SDS011;14769;56.934;24.176;2022-12-24T05:29:40;15.88;;;7.45;;
27269;SDS011;14769;56.934;24.176;2022-12-24T05:30:42;33.58;;;12.23;;
27269;SDS011;14769;56.934;24.176;2022-12-24T05:31:44;53.60;;;18.17;;
27269;SDS011;14769;56.934;24.176;2022-12-24T05:32:47;25.63;;;9.93;;
27269;SDS011;14769;56.934;24.176;2022-12-24T05:33:49;20.73;;;9.90;;
27269;SDS011;14769;56.934;24.176;2022-12-24T05:34:51;29.63;;;10.93;;
27269;SDS011;14769;56.934;24.176;2022-12-24T05:35:53;17.17;;;7.78;;
27269;SDS011;14769;56.934;24.176;2022-12-24T05:36:55;21.52;;;8.68;;
27269;SDS011;14769;56.934;24.176;2022-12-24T05:37:57;18.52;;;8.48;;
27269;SDS011;14769;56.934;24.176;2022-12-24T05:38:59;18.10;;;8.77;;
27269;SDS011;14769;56.934;24.176;2022-12-24T05:40:01;23.02;;;8.82;;
27269;SDS011;14769;56.934;24.176;2022-12-24T05:41:05;20.60;;;8.48;;
27269;SDS011;14769;56.934;24.176;2022-12-24T05:42:07;17.80;;;8.35;;
27269;SDS011;14769;56.934;24.176;2022-12-24T05:43:09;17.55;;;7.80;;
27269;SDS011;14769;56.934;24.176;2022-12-24T05:44:14;15.63;;;8.13;;
27269;SDS011;14769;56.934;24.176;2022-12-24T05:45:17;15.77;;;7.57;;
27269;SDS011;14769;56.934;24.176;2022-12-24T05:46:20;16.55;;;7.82;;
27269;SDS011;14769;56.934;24.176;2022-12-24T05:47:23;18.58;;;8.32;;
27269;SDS011;14769;56.934;24.176;2022-12-24T05:48:25;24.90;;;8.57;;
27269;SDS011;14769;56.934;24.176;2022-12-24T05:49:28;26.73;;;9.93;;
27269;SDS011;14769;56.934;24.176;2022-12-24T05:50:31;26.42;;;11.80;;
27269;SDS011;14769;56.934;24.176;2022-12-24T05:51:33;31.90;;;11.55;;
27269;SDS011;14769;56.934;24.176;2022-12-24T05:52:35;30.25;;;12.13;;
27269;SDS011;14769;56.934;24.176;2022-12-24T05:53:38;37.45;;;15.75;;
27269;SDS011;14769;56.934;24.176;2022-12-24T05:54:41;32.22;;;13.93;;
27269;SDS011;14769;56.934;24.176;2022-12-24T05:55:43;47.58;;;20.80;;
27269;SDS011;14769;56.934;24.176;2022-12-24T05:56:45;44.15;;;18.85;;
27269;SDS011;14769;56.934;24.176;2022-12-24T05:57:47;31.58;;;13.13;;
27269;SDS011;14769;56.934;24.176;2022-12-24T05:58:49;36.65;;;15.45;;
27269;SDS011;14769;56.934;24.176;2022-12-24T05:59:52;45.42;;;14.05;;
27269;SDS011;14769;56.934;24.176;2022-12-24T06:00:54;18.10;;;9.38;;
27269;SDS011;14769;56.934;24.176;2022-12-24T06:01:56;15.98;;;8.43;;
27269;SDS011;14769;56.934;24.176;2022-12-24T06:02:58;18.08;;;7.80;;
27269;SDS011;14769;56.934;24.176;2022-12-24T06:04:00;13.05;;;7.28;;
27269;SDS011;14769;56.934;24.176;2022-12-24T06:05:02;14.68;;;6.90;;
27269;SDS011;14769;56.934;24.176;2022-12-24T06:06:08;20.20;;;7.85;;
27269;SDS011;14769;56.934;24.176;2022-12-24T06:07:12;19.90;;;9.68;;
27269;SDS011;14769;56.934;24.176;2022-12-24T06:08:14;14.88;;;8.45;;
27269;SDS011;14769;56.934;24.176;2022-12-24T06:09:16;15.48;;;8.07;;
27269;SDS011;14769;56.934;24.176;2022-12-24T06:10:18;18.23;;;8.95;;
27269;SDS011;14769;56.934;24.176;2022-12-24T06:11:21;16.23;;;8.60;;
27269;SDS011;14769;56.934;24.176;2022-12-24T06:12:24;12.82;;;7.40;;
27269;SDS011;14769;56.934;24.176;2022-12-24T06:13:26;14.30;;;7.10;;
27269;SDS011;14769;56.934;24.176;2022-12-24T06:14:28;17.67;;;8.95;;
27269;SDS011;14769;56.934;24.176;2022-12-24T06:15:30;17.83;;;9.52;;
27269;SDS011;14769;56.934;24.176;2022-12-24T06:16:32;29.30;;;13.25;;
27269;SDS011;14769;56.934;24.176;2022-12-24T06:17:34;41.55;;;17.17;;
27269;SDS011;14769;56.934;24.176;2022-12-24T06:18:36;37.50;;;16.98;;
27269;SDS011;14769;56.934;24.176;2022-12-24T06:19:38;40.45;;;17.90;;
27269;SDS011;14769;56.934;24.176;2022-12-24T06:20:40;43.17;;;17.52;;
27269;SDS011;14769;56.934;24.176;2022-12-24T06:21:43;44.00;;;19.13;;
27269;SDS011;14769;56.934;24.176;2022-12-24T06:22:44;40.05;;;17.67;;
27269;SDS011;14769;56.934;24.176;2022-12-24T06:23:46;37.67;;;16.90;;
27269;SDS011;14769;56.934;24.176;2022-12-24T06:24:48;40.72;;;15.95;;
27269;SDS011;14769;56.934;24.176;2022-12-24T06:25:50;32.92;;;14.02;;
27269;SDS011;14769;56.934;24.176;2022-12-24T06:26:53;51.28;;;18.90;;
27269;SDS011;14769;56.934;24.176;2022-12-24T06:27:55;59.47;;;20.40;;
27269;SDS011;14769;56.934;24.176;2022-12-24T06:28:57;45.55;;;16.65;;
27269;SDS011;14769;56.934;24.176;2022-12-24T06:29:59;48.92;;;19.98;;
27269;SDS011;14769;56.934;24.176;2022-12-24T06:31:01;49.42;;;20.17;;
27269;SDS011;14769;56.934;24.176;2022-12-24T06:32:04;75.07;;;29.20;;
27269;SDS011;14769;56.934;24.176;2022-12-24T06:33:06;75.40;;;28.67;;
27269;SDS011;14769;56.934;24.176;2022-12-24T06:34:08;80.57;;;30.92;;
27269;SDS011;14769;56.934;24.176;2022-12-24T06:35:10;68.50;;;29.08;;
27269;SDS011;14769;56.934;24.176;2022-12-24T06:36:14;69.60;;;26.55;;
27269;SDS011;14769;56.934;24.176;2022-12-24T06:37:18;48.97;;;21.80;;
27269;SDS011;14769;56.934;24.176;2022-12-24T06:38:20;42.72;;;19.05;;
27269;SDS011;14769;56.934;24.176;2022-12-24T06:39:22;50.03;;;21.88;;
27269;SDS011;14769;56.934;24.176;2022-12-24T06:40:25;66.40;;;28.05;;
27269;SDS011;14769;56.934;24.176;2022-12-24T06:41:28;67.28;;;29.38;;
27269;SDS011;14769;56.934;24.176;2022-12-24T06:42:29;69.68;;;29.33;;
27269;SDS011;14769;56.934;24.176;2022-12-24T06:43:32;58.55;;;25.73;;
27269;SDS011;14769;56.934;24.176;2022-12-24T06:44:35;49.72;;;22.38;;
27269;SDS011;14769;56.934;24.176;2022-12-24T06:45:38;48.50;;;23.85;;